createdAt,value
2019-03-05T00:00:48.162Z,5.60
2019-03-05T00:03:51.626Z,5.50
2019-03-05T00:06:55.061Z,5.50
2019-03-05T00:09:58.514Z,5.50
2019-03-05T00:13:01.950Z,5.50
2019-03-05T00:16:05.413Z,5.50
2019-03-05T00:19:08.854Z,5.50
2019-03-05T00:22:12.310Z,5.40
2019-03-05T00:25:33.338Z,5.30
2019-03-05T00:28:57.479Z,5.10
2019-03-05T00:32:00.961Z,5.00
2019-03-05T00:35:31.224Z,5.00
2019-03-05T00:38:48.988Z,4.90
2019-03-05T00:42:21.022Z,4.90
2019-03-05T00:45:42.703Z,4.90
2019-03-05T00:49:03.754Z,5.00
2019-03-05T00:52:16.454Z,5.00
2019-03-05T00:55:38.131Z,5.10
2019-03-05T00:58:47.414Z,5.10
2019-03-05T01:02:13.393Z,5.10
2019-03-05T01:05:28.437Z,5.20
2019-03-05T01:08:32.621Z,5.20
2019-03-05T01:11:36.057Z,5.20
2019-03-05T01:14:39.713Z,5.20
2019-03-05T01:17:43.154Z,5.20
2019-03-05T01:20:46.596Z,5.20
2019-03-05T01:23:50.052Z,5.20
2019-03-05T01:26:53.509Z,5.20
2019-03-05T01:29:56.994Z,5.20
2019-03-05T01:33:11.114Z,5.10
2019-03-05T01:36:16.211Z,5.10
2019-03-05T01:39:24.041Z,5.10
2019-03-05T01:42:27.512Z,5.10
2019-03-05T01:45:31.146Z,5.10
2019-03-05T01:48:34.575Z,5.10
2019-03-05T01:51:38.050Z,5.10
2019-03-05T01:54:41.516Z,5.10
2019-03-05T01:57:44.975Z,5.10
2019-03-05T02:00:48.440Z,5.10
2019-03-05T02:03:51.982Z,5.10
2019-03-05T02:06:55.454Z,5.10
2019-03-05T02:10:00.041Z,5.10
2019-03-05T02:13:03.491Z,5.00
2019-03-05T02:16:06.959Z,5.00
2019-03-05T02:19:42.320Z,5.00
2019-03-05T02:22:48.306Z,5.00
2019-03-05T02:25:54.851Z,5.00
2019-03-05T02:29:04.450Z,4.90
2019-03-05T02:32:36.492Z,4.90
2019-03-05T02:35:59.357Z,4.90
2019-03-05T20:42:35.651Z,4.20
2019-03-05T20:45:45.190Z,4.20
2019-03-05T20:48:49.254Z,4.10
2019-03-05T20:51:52.690Z,4.10
2019-03-05T20:54:56.281Z,4.10
2019-03-05T20:57:59.914Z,4.10
2019-03-05T21:01:05.194Z,4.10
2019-03-05T21:04:08.653Z,4.10
2019-03-05T21:07:12.089Z,4.20
2019-03-05T21:10:15.626Z,4.30
2019-03-05T21:13:19.134Z,4.40
2019-03-05T21:16:22.594Z,4.50
2019-03-05T21:19:26.107Z,4.50
2019-03-05T21:22:29.585Z,4.60
2019-03-05T21:25:33.023Z,4.50
2019-03-05T21:28:43.534Z,4.50
2019-03-05T21:31:46.970Z,4.40
2019-03-05T21:34:50.433Z,4.40
2019-03-05T21:37:53.894Z,4.20
2019-03-05T21:40:57.329Z,4.20
2019-03-05T21:44:00.807Z,4.20
2019-03-05T21:47:04.243Z,4.10
2019-03-05T21:50:11.161Z,4.10
2019-03-05T21:53:15.162Z,4.10
2019-03-05T21:56:18.645Z,4.10
2019-03-05T21:59:22.078Z,4.10
2019-03-05T22:02:25.550Z,4.00
2019-03-05T22:05:29.697Z,4.00
2019-03-05T22:08:33.165Z,4.10
2019-03-05T22:11:36.606Z,4.10
2019-03-05T22:14:40.114Z,4.20
2019-03-05T22:17:43.590Z,4.20
2019-03-05T22:20:47.034Z,4.20
2019-03-05T22:23:50.498Z,4.20
2019-03-05T22:26:53.938Z,4.20
2019-03-05T22:29:57.409Z,4.20
2019-03-05T22:33:00.834Z,4.20
2019-03-05T22:36:04.378Z,4.10
2019-03-05T22:39:07.856Z,4.00
2019-03-05T22:42:11.354Z,4.00
2019-03-05T22:45:17.035Z,3.90
2019-03-05T22:48:20.806Z,3.80
2019-03-05T22:51:24.297Z,3.70
2019-03-05T22:54:27.774Z,3.70
2019-03-05T22:57:31.210Z,3.70
2019-03-05T23:00:51.419Z,3.80
2019-03-05T23:03:55.093Z,3.80
2019-03-05T23:06:58.573Z,3.70
2019-03-05T23:10:02.450Z,3.70
2019-03-05T23:13:05.975Z,3.70
2019-03-05T23:16:09.762Z,3.60
2019-03-05T23:19:13.417Z,3.60
2019-03-05T23:22:16.853Z,3.60
2019-03-05T23:25:21.898Z,3.60
2019-03-05T23:28:25.329Z,3.50
2019-03-05T23:31:28.789Z,3.50
2019-03-05T23:34:32.222Z,3.60
2019-03-05T23:37:35.673Z,3.60
2019-03-05T23:40:39.519Z,3.60
2019-03-05T23:43:42.950Z,3.70
2019-03-05T23:46:46.412Z,3.70
2019-03-05T23:49:49.870Z,3.70
2019-03-05T23:52:53.332Z,3.60
2019-03-05T23:55:56.811Z,3.60
2019-03-05T23:59:00.238Z,3.60
